Time;durP1;ratioP1;P1;durP2;ratioP2;P2;SDS_P1;SDS_P2;PMS_P1;PMS_P2;Temp;Humidity;BMP_temperature;BMP_pressure;BME280_temperature;BME280_humidity;BME280_pressure;Samples;Min_cycle;Max_cycle;Signal;HPM_P1;HPM_P2
2021/07/20 00:00:17;;;;;;;1.80;0.52;;;;;;;;;;5036764;28;20048;-71
2021/07/20 00:02:44;;;;;;;0.20;0.20;;;;;;;;;;5036720;28;20029;-71
2021/07/20 00:05:11;;;;;;;0.38;0.38;;;;;;;;;;5036364;28;20130;-71
2021/07/20 00:07:38;;;;;;;0.20;0.20;;;;;;;;;;5036592;28;20049;-71
2021/07/20 00:10:06;;;;;;;0.40;0.40;;;;;;;;;;5036724;28;20049;-71
2021/07/20 00:12:32;;;;;;;1.48;0.73;;;;;;;;;;5036346;28;20033;-71
2021/07/20 00:14:58;;;;;;;0.20;0.20;;;;;;;;;;5036436;28;20041;-71
2021/07/20 00:17:27;;;;;;;0.75;0.73;;;;;;;;;;5035042;28;20373;-71
2021/07/20 00:19:54;;;;;;;2.10;0.40;;;;;;;;;;5035982;28;20040;-71
2021/07/20 00:22:20;;;;;;;0.73;0.73;;;;;;;;;;5036270;28;20091;-71
2021/07/20 00:24:46;;;;;;;0.17;0.17;;;;;;;;;;5036156;28;20043;-70
2021/07/20 00:27:12;;;;;;;0.30;0.30;;;;;;;;;;5036137;28;20052;-71
2021/07/20 00:29:38;;;;;;;2.67;0.28;;;;;;;;;;5036718;28;20041;-71
2021/07/20 00:32:05;;;;;;;0.68;0.68;;;;;;;;;;5035757;28;20075;-71
2021/07/20 00:34:31;;;;;;;0.20;0.20;;;;;;;;;;5035904;28;20496;-71
2021/07/20 00:36:57;;;;;;;0.10;0.10;;;;;;;;;;5035939;28;20120;-71
2021/07/20 00:39:23;;;;;;;0.35;0.35;;;;;;;;;;5036252;28;20047;-71
2021/07/20 00:41:49;;;;;;;0.10;0.10;;;;;;;;;;5035576;28;20076;-71
2021/07/20 00:44:15;;;;;;;0.40;0.40;;;;;;;;;;5035471;28;20111;-71
2021/07/20 00:46:41;;;;;;;0.28;0.28;;;;;;;;;;5035515;28;20133;-71
2021/07/20 00:49:08;;;;;;;0.15;0.15;;;;;;;;;;5035636;28;20116;-71
2021/07/20 00:51:34;;;;;;;0.50;0.50;;;;;;;;;;5035961;28;20068;-71
2021/07/20 00:54:00;;;;;;;0.28;0.28;;;;;;;;;;5035600;28;20033;-71
2021/07/20 00:56:26;;;;;;;0.88;0.75;;;;;;;;;;5035614;28;20195;-71
2021/07/20 00:58:52;;;;;;;0.77;0.77;;;;;;;;;;5035553;28;20041;-71
2021/07/20 01:01:19;;;;;;;0.32;0.32;;;;;;;;;;5035804;28;20045;-71
2021/07/20 01:03:45;;;;;;;0.43;0.43;;;;;;;;;;5035464;28;20045;-71
2021/07/20 01:06:11;;;;;;;0.17;0.17;;;;;;;;;;5034941;28;20077;-71
2021/07/20 01:08:40;;;;;;;0.30;0.28;;;;;;;;;;5035061;28;20049;-71
2021/07/20 01:11:06;;;;;;;0.20;0.20;;;;;;;;;;5035092;28;20068;-71
2021/07/20 01:13:33;;;;;;;0.10;0.10;;;;;;;;;;5034414;28;20396;-71
2021/07/20 01:15:59;;;;;;;0.10;0.10;;;;;;;;;;5035558;28;20048;-71
2021/07/20 01:18:26;;;;;;;0.20;0.20;;;;;;;;;;5035664;28;20128;-71
2021/07/20 01:20:53;;;;;;;0.10;0.10;;;;;;;;;;5035408;28;20045;-71
2021/07/20 01:23:30;;;;;;;0.45;0.30;;;;;;;;;;5035543;28;20076;-71
2021/07/20 01:25:57;;;;;;;0.20;0.20;;;;;;;;;;5035060;28;20099;-71
2021/07/20 01:28:24;;;;;;;0.10;0.10;;;;;;;;;;5034026;28;20045;-71
2021/07/20 01:30:52;;;;;;;0.20;0.20;;;;;;;;;;5035462;28;20041;-71
2021/07/20 01:33:19;;;;;;;0.30;0.30;;;;;;;;;;5035241;28;20048;-71
2021/07/20 01:35:47;;;;;;;0.20;0.20;;;;;;;;;;5034753;28;20045;-71
2021/07/20 01:38:14;;;;;;;0.20;0.20;;;;;;;;;;5035186;28;20045;-71
2021/07/20 01:40:40;;;;;;;0.20;0.20;;;;;;;;;;5035449;28;20120;-71
2021/07/20 01:43:07;;;;;;;0.20;0.20;;;;;;;;;;5035328;28;20130;-71
2021/07/20 01:45:34;;;;;;;0.40;0.40;;;;;;;;;;5035547;28;20041;-71
2021/07/20 01:48:01;;;;;;;0.25;0.25;;;;;;;;;;5033727;28;20045;-71
2021/07/20 01:50:28;;;;;;;0.30;0.30;;;;;;;;;;5034791;28;20493;-71
2021/07/20 01:52:55;;;;;;;0.20;0.20;;;;;;;;;;5035093;28;20041;-71
2021/07/20 01:55:23;;;;;;;0.20;0.20;;;;;;;;;;5034851;28;20037;-71
2021/07/20 01:57:49;;;;;;;0.10;0.10;;;;;;;;;;5034778;28;20049;-71
2021/07/20 02:00:18;;;;;;;0.13;0.13;;;;;;;;;;5034729;28;20052;-71
2021/07/20 02:02:56;;;;;;;0.65;0.50;;;;;;;;;;5034546;28;20497;-71
2021/07/20 02:08:27;;;;;;;0.20;0.20;;;;;;;;;;5034297;28;20464;-71
2021/07/20 02:11:02;;;;;;;0.50;0.50;;;;;;;;;;5034561;28;20099;-71
2021/07/20 02:13:30;;;;;;;0.57;0.57;;;;;;;;;;5034510;28;20057;-71
2021/07/20 02:15:56;;;;;;;0.30;0.30;;;;;;;;;;5034639;28;20049;-71
2021/07/20 02:18:24;;;;;;;0.30;0.30;;;;;;;;;;5034411;28;20041;-71
2021/07/20 02:20:51;;;;;;;0.55;0.55;;;;;;;;;;5034353;28;20046;-70
2021/07/20 02:23:17;;;;;;;0.20;0.20;;;;;;;;;;5034005;28;20040;-71
2021/07/20 02:25:43;;;;;;;0.43;0.43;;;;;;;;;;5037970;28;20123;-71
2021/07/20 02:28:10;;;;;;;0.30;0.30;;;;;;;;;;5038373;28;20045;-71
2021/07/20 02:30:37;;;;;;;0.25;0.25;;;;;;;;;;5038430;28;20033;-71
2021/07/20 02:33:04;;;;;;;0.10;0.10;;;;;;;;;;5038296;28;20480;-71
2021/07/20 02:35:30;;;;;;;0.77;0.50;;;;;;;;;;5036827;28;20527;-71
2021/07/20 02:37:57;;;;;;;0.13;0.13;;;;;;;;;;5038187;28;20120;-71
2021/07/20 02:40:24;;;;;;;0.30;0.30;;;;;;;;;;5038747;28;20038;-71
2021/07/20 02:42:51;;;;;;;0.20;0.20;;;;;;;;;;5038141;28;20551;-71
2021/07/20 02:45:18;;;;;;;0.52;0.52;;;;;;;;;;5037946;28;20523;-71
2021/07/20 02:47:44;;;;;;;0.43;0.20;;;;;;;;;;5038196;28;20045;-71
2021/07/20 02:50:13;;;;;;;0.20;0.20;;;;;;;;;;5037913;28;20049;-71
2021/07/20 02:52:41;;;;;;;0.10;0.10;;;;;;;;;;5037631;28;20519;-71
2021/07/20 02:55:08;;;;;;;0.10;0.10;;;;;;;;;;5037608;28;20040;-71
2021/07/20 02:57:36;;;;;;;0.28;0.28;;;;;;;;;;5037835;28;20041;-71
2021/07/20 03:00:04;;;;;;;0.30;0.30;;;;;;;;;;5037502;28;20037;-71
2021/07/20 03:02:34;;;;;;;0.38;0.30;;;;;;;;;;5037465;28;20045;-71
2021/07/20 03:05:00;;;;;;;0.30;0.30;;;;;;;;;;5037479;28;20069;-71
2021/07/20 03:07:28;;;;;;;1.48;0.60;;;;;;;;;;5037592;28;20635;-71
2021/07/20 03:09:55;;;;;;;0.25;0.25;;;;;;;;;;5037715;28;20086;-71
2021/07/20 03:12:23;;;;;;;3.05;0.28;;;;;;;;;;5037354;28;20045;-71
2021/07/20 03:14:49;;;;;;;0.45;0.45;;;;;;;;;;5038452;28;20056;-70
2021/07/20 03:17:16;;;;;;;0.17;0.17;;;;;;;;;;5037460;28;20041;-71
2021/07/20 03:19:43;;;;;;;0.50;0.50;;;;;;;;;;5037888;28;20034;-70
2021/07/20 03:22:13;;;;;;;0.95;0.50;;;;;;;;;;5038040;28;20048;-71
2021/07/20 03:24:39;;;;;;;0.47;0.47;;;;;;;;;;5038096;28;20042;-70
2021/07/20 03:27:07;;;;;;;0.10;0.10;;;;;;;;;;5037793;28;20096;-71
2021/07/20 03:29:40;;;;;;;0.20;0.20;;;;;;;;;;5037862;28;20041;-71
2021/07/20 03:32:07;;;;;;;0.60;0.60;;;;;;;;;;5036770;28;20095;-71
2021/07/20 03:34:35;;;;;;;0.10;0.10;;;;;;;;;;5037213;28;20096;-71
2021/07/20 03:37:01;;;;;;;0.13;0.13;;;;;;;;;;5037018;28;20041;-71
2021/07/20 03:39:27;;;;;;;0.30;0.30;;;;;;;;;;5037592;28;20488;-71
2021/07/20 03:41:53;;;;;;;1.42;0.55;;;;;;;;;;5037295;28;20079;-70
2021/07/20 03:44:20;;;;;;;0.10;0.10;;;;;;;;;;5037219;28;20483;-70
2021/07/20 03:46:46;;;;;;;0.25;0.25;;;;;;;;;;5037063;28;20046;-71
2021/07/20 03:49:13;;;;;;;0.10;0.10;;;;;;;;;;5037125;28;20090;-71
2021/07/20 03:51:41;;;;;;;0.10;0.10;;;;;;;;;;5037148;28;20052;-71
2021/07/20 03:54:08;;;;;;;0.20;0.20;;;;;;;;;;5036847;28;20472;-71
2021/07/20 03:56:35;;;;;;;0.30;0.30;;;;;;;;;;5036802;28;20072;-71
2021/07/20 03:59:08;;;;;;;0.55;0.55;;;;;;;;;;5036727;28;20083;-71
2021/07/20 04:01:36;;;;;;;0.20;0.20;;;;;;;;;;5037301;28;20120;-71
2021/07/20 04:04:02;;;;;;;0.35;0.35;;;;;;;;;;5036841;28;20038;-71
2021/07/20 04:06:29;;;;;;;0.25;0.25;;;;;;;;;;5036518;28;20049;-71
2021/07/20 04:08:56;;;;;;;0.22;0.22;;;;;;;;;;5036536;28;20111;-71
2021/07/20 04:11:22;;;;;;;0.47;0.17;;;;;;;;;;5037037;28;20480;-71
2021/07/20 04:13:49;;;;;;;0.30;0.30;;;;;;;;;;5036745;28;20103;-71
2021/07/20 04:16:16;;;;;;;0.10;0.10;;;;;;;;;;5036687;28;20041;-71
2021/07/20 04:18:43;;;;;;;0.50;0.40;;;;;;;;;;5036691;28;20041;-71
2021/07/20 04:21:09;;;;;;;0.30;0.30;;;;;;;;;;5036529;28;20124;-71
2021/07/20 04:23:36;;;;;;;0.20;0.20;;;;;;;;;;5035236;28;20464;-71
2021/07/20 04:26:03;;;;;;;0.30;0.30;;;;;;;;;;5036446;28;20188;-71
2021/07/20 04:28:29;;;;;;;0.17;0.17;;;;;;;;;;5036480;28;20045;-71
2021/07/20 04:30:57;;;;;;;0.20;0.20;;;;;;;;;;5036750;28;20046;-71
2021/07/20 04:33:27;;;;;;;1.75;1.05;;;;;;;;;;5036474;28;20524;-71
2021/07/20 04:35:56;;;;;;;0.30;0.30;;;;;;;;;;5035861;28;20045;-71
2021/07/20 04:38:24;;;;;;;0.20;0.20;;;;;;;;;;5036457;28;20042;-71
2021/07/20 04:40:50;;;;;;;0.10;0.10;;;;;;;;;;5036752;28;20037;-71
2021/07/20 04:43:16;;;;;;;0.20;0.20;;;;;;;;;;5035906;28;20041;-71
2021/07/20 04:45:43;;;;;;;0.30;0.30;;;;;;;;;;5036075;28;20041;-71
2021/07/20 04:48:09;;;;;;;0.10;0.10;;;;;;;;;;5034863;28;20072;-71
2021/07/20 04:50:35;;;;;;;0.40;0.30;;;;;;;;;;5036078;28;20045;-71
2021/07/20 04:53:03;;;;;;;1.15;1.00;;;;;;;;;;5035700;28;20041;-70
2021/07/20 04:55:34;;;;;;;0.47;0.47;;;;;;;;;;5035925;28;20504;-71
2021/07/20 04:58:00;;;;;;;;;;;;;;;;;;5035760;28;20040;-71
2021/07/20 05:00:26;;;;;;;0.10;0.10;;;;;;;;;;5035906;28;19909;-70
2021/07/20 05:02:53;;;;;;;0.68;0.68;;;;;;;;;;5035535;28;20041;-70
2021/07/20 05:05:22;;;;;;;0.20;0.20;;;;;;;;;;5035526;28;20546;-70
2021/07/20 05:07:49;;;;;;;0.20;0.20;;;;;;;;;;5034381;28;20497;-70
2021/07/20 05:10:16;;;;;;;0.80;0.73;;;;;;;;;;5035152;28;20049;-70
2021/07/20 05:12:43;;;;;;;0.30;0.30;;;;;;;;;;5035009;28;20060;-71
2021/07/20 05:15:10;;;;;;;0.20;0.20;;;;;;;;;;5035603;28;20045;-71
2021/07/20 05:17:37;;;;;;;0.35;0.35;;;;;;;;;;5035596;28;20052;-70
2021/07/20 05:20:06;;;;;;;0.28;0.28;;;;;;;;;;5035102;28;20067;-70
2021/07/20 05:22:35;;;;;;;0.45;0.45;;;;;;;;;;5035154;28;20041;-69
2021/07/20 05:25:02;;;;;;;0.10;0.10;;;;;;;;;;5034744;28;20063;-70
2021/07/20 05:27:30;;;;;;;0.30;0.30;;;;;;;;;;5033476;28;20103;-70
2021/07/20 05:29:59;;;;;;;0.35;0.35;;;;;;;;;;5034117;28;20557;-70
2021/07/20 05:32:26;;;;;;;0.20;0.20;;;;;;;;;;5033723;28;20049;-71
2021/07/20 05:34:52;;;;;;;0.30;0.30;;;;;;;;;;5033803;28;20122;-71
2021/07/20 05:37:19;;;;;;;1.23;0.40;;;;;;;;;;5034896;28;20050;-70
2021/07/20 05:39:46;;;;;;;0.20;0.20;;;;;;;;;;5034828;28;20098;-70
2021/07/20 05:42:13;;;;;;;0.32;0.32;;;;;;;;;;5034687;28;20045;-71
2021/07/20 05:44:39;;;;;;;1.08;0.75;;;;;;;;;;5034731;28;20041;-71
2021/07/20 05:47:08;;;;;;;0.30;0.30;;;;;;;;;;5034092;28;20049;-70
2021/07/20 05:49:35;;;;;;;0.20;0.20;;;;;;;;;;5033422;28;20045;-71
2021/07/20 05:52:02;;;;;;;0.20;0.20;;;;;;;;;;5033489;28;20065;-71
2021/07/20 05:54:28;;;;;;;0.20;0.20;;;;;;;;;;5033429;28;20041;-71
2021/07/20 05:56:55;;;;;;;0.30;0.30;;;;;;;;;;5033663;28;20077;-71
2021/07/20 05:59:22;;;;;;;0.20;0.20;;;;;;;;;;5033494;28;20128;-72
2021/07/20 06:01:48;;;;;;;0.30;0.30;;;;;;;;;;5038387;28;20099;-71
2021/07/20 06:04:15;;;;;;;0.30;0.30;;;;;;;;;;5052680;28;20527;-71
2021/07/20 06:06:42;;;;;;;0.40;0.40;;;;;;;;;;5052900;28;20048;-71
2021/07/20 06:09:08;;;;;;;0.30;0.30;;;;;;;;;;5053968;28;20040;-72
2021/07/20 06:11:34;;;;;;;0.55;0.50;;;;;;;;;;5054367;28;20075;-73
2021/07/20 06:14:02;;;;;;;0.20;0.20;;;;;;;;;;5053417;28;20061;-71
2021/07/20 06:16:29;;;;;;;0.20;0.20;;;;;;;;;;5044118;28;20136;-72
2021/07/20 06:18:55;;;;;;;0.45;0.32;;;;;;;;;;5053669;28;20067;-72
2021/07/20 06:21:23;;;;;;;0.22;0.22;;;;;;;;;;5053889;28;20045;-72
2021/07/20 06:23:50;;;;;;;0.30;0.30;;;;;;;;;;5054138;28;20066;-73
2021/07/20 06:26:17;;;;;;;0.20;0.20;;;;;;;;;;5052853;28;20036;-73
2021/07/20 06:28:44;;;;;;;0.20;0.20;;;;;;;;;;5053758;28;20060;-73
2021/07/20 06:31:10;;;;;;;0.65;0.65;;;;;;;;;;5054015;28;20033;-73
2021/07/20 06:33:38;;;;;;;0.32;0.32;;;;;;;;;;5053932;28;20048;-71
2021/07/20 06:36:05;;;;;;;0.22;0.22;;;;;;;;;;5053668;28;20049;-72
2021/07/20 06:38:33;;;;;;;0.20;0.20;;;;;;;;;;5053842;28;20124;-72
2021/07/20 06:40:59;;;;;;;0.30;0.30;;;;;;;;;;5053837;28;20535;-73
2021/07/20 06:43:26;;;;;;;0.20;0.20;;;;;;;;;;5053207;28;20041;-73
2021/07/20 06:45:52;;;;;;;0.20;0.20;;;;;;;;;;5052057;28;20535;-73
2021/07/20 06:48:23;;;;;;;0.40;0.40;;;;;;;;;;5052867;28;20083;-74
2021/07/20 06:50:52;;;;;;;0.30;0.30;;;;;;;;;;5053517;28;20040;-73
2021/07/20 06:53:19;;;;;;;0.20;0.20;;;;;;;;;;5053890;28;20098;-73
2021/07/20 06:55:47;;;;;;;0.63;0.40;;;;;;;;;;5048284;28;20045;-73
2021/07/20 06:58:14;;;;;;;0.63;0.30;;;;;;;;;;5033652;28;20037;-73
2021/07/20 07:00:43;;;;;;;0.30;0.30;;;;;;;;;;5033727;28;20073;-73
2021/07/20 07:03:10;;;;;;;0.20;0.20;;;;;;;;;;5033665;28;20366;-73
2021/07/20 07:05:36;;;;;;;0.30;0.30;;;;;;;;;;5033556;28;20080;-73
2021/07/20 07:08:03;;;;;;;0.30;0.30;;;;;;;;;;5033570;28;20499;-73
2021/07/20 07:10:30;;;;;;;0.28;0.28;;;;;;;;;;5031360;28;20056;-72
2021/07/20 07:12:56;;;;;;;0.20;0.20;;;;;;;;;;5035884;28;20528;-73
2021/07/20 07:15:23;;;;;;;0.30;0.30;;;;;;;;;;5037403;28;20509;-72
2021/07/20 07:17:50;;;;;;;0.20;0.20;;;;;;;;;;5036896;28;20099;-72
2021/07/20 07:20:19;;;;;;;0.20;0.20;;;;;;;;;;5037931;28;20042;-72
2021/07/20 07:22:45;;;;;;;0.20;0.20;;;;;;;;;;5037428;28;20131;-73
2021/07/20 07:25:12;;;;;;;0.20;0.20;;;;;;;;;;5037280;28;20071;-73
2021/07/20 07:27:38;;;;;;;0.15;0.15;;;;;;;;;;5037354;28;20049;-74
2021/07/20 07:30:06;;;;;;;0.20;0.20;;;;;;;;;;5037931;28;20041;-74
2021/07/20 07:32:32;;;;;;;0.17;0.17;;;;;;;;;;5037536;28;20044;-74
2021/07/20 07:34:58;;;;;;;0.22;0.22;;;;;;;;;;5037484;28;20065;-74
2021/07/20 07:37:28;;;;;;;0.10;0.10;;;;;;;;;;5037420;28;20072;-75
2021/07/20 07:39:55;;;;;;;0.20;0.20;;;;;;;;;;5043506;28;20523;-75
2021/07/20 07:42:22;;;;;;;0.20;0.20;;;;;;;;;;5056091;28;20487;-74
2021/07/20 07:44:49;;;;;;;0.20;0.20;;;;;;;;;;5055983;28;20086;-74
2021/07/20 07:47:16;;;;;;;0.47;0.47;;;;;;;;;;5056274;28;20045;-73
2021/07/20 07:49:45;;;;;;;0.20;0.20;;;;;;;;;;5056200;28;20068;-75
2021/07/20 07:52:15;;;;;;;0.20;0.20;;;;;;;;;;5056726;28;20037;-74
2021/07/20 07:54:41;;;;;;;0.20;0.20;;;;;;;;;;5056757;28;20041;-74
2021/07/20 07:57:08;;;;;;;0.20;0.20;;;;;;;;;;5051384;28;20090;-74
2021/07/20 07:59:35;;;;;;;0.50;0.50;;;;;;;;;;5055779;28;20044;-74
2021/07/20 08:02:03;;;;;;;0.10;0.10;;;;;;;;;;5055796;28;20048;-73
2021/07/20 08:04:30;;;;;;;0.20;0.20;;;;;;;;;;5055483;28;20450;-73
2021/07/20 08:06:57;;;;;;;0.20;0.20;;;;;;;;;;5055957;28;20049;-73
2021/07/20 08:09:24;;;;;;;0.10;0.10;;;;;;;;;;5055534;28;20037;-74
2021/07/20 08:11:50;;;;;;;0.73;0.52;;;;;;;;;;5055645;28;20047;-74
2021/07/20 08:14:16;;;;;;;0.30;0.30;;;;;;;;;;5055602;28;20057;-73
2021/07/20 08:16:44;;;;;;;0.20;0.20;;;;;;;;;;5055544;28;20044;-73
2021/07/20 08:19:11;;;;;;;0.75;0.50;;;;;;;;;;5055151;28;20080;-73
2021/07/20 08:21:38;;;;;;;0.20;0.20;;;;;;;;;;5055018;28;20036;-73
2021/07/20 08:24:05;;;;;;;0.30;0.30;;;;;;;;;;5055616;28;20041;-72
2021/07/20 08:26:33;;;;;;;0.20;0.20;;;;;;;;;;5056134;28;20044;-72
2021/07/20 08:29:19;;;;;;;0.15;0.15;;;;;;;;;;5056110;28;20139;-73
2021/07/20 08:31:49;;;;;;;0.20;0.20;;;;;;;;;;5056354;28;20036;-72
2021/07/20 08:34:16;;;;;;;0.10;0.10;;;;;;;;;;5055788;28;20052;-72
2021/07/20 08:36:43;;;;;;;0.10;0.10;;;;;;;;;;5056076;28;20047;-74
2021/07/20 08:39:11;;;;;;;0.20;0.20;;;;;;;;;;5052994;28;20090;-73
2021/07/20 08:42:09;;;;;;;0.20;0.20;;;;;;;;;;5045812;28;20071;-73
2021/07/20 08:44:41;;;;;;;0.55;0.52;;;;;;;;;;5033080;28;20528;-73
2021/07/20 08:47:23;;;;;;;0.20;0.20;;;;;;;;;;5034608;28;20160;-73
2021/07/20 08:50:04;;;;;;;0.20;0.20;;;;;;;;;;5034701;28;20065;-73
2021/07/20 08:52:35;;;;;;;0.25;0.25;;;;;;;;;;5034585;28;20072;-72
2021/07/20 08:55:09;;;;;;;0.15;0.15;;;;;;;;;;5033898;28;20540;-73
2021/07/20 08:57:40;;;;;;;0.32;0.32;;;;;;;;;;5034678;28;20163;-73
2021/07/20 09:00:06;;;;;;;;;;;;;;;;;;5034833;28;20413;-73
2021/07/20 09:02:51;;;;;;;0.73;0.50;;;;;;;;;;5034039;28;19909;-73
2021/07/20 09:05:22;;;;;;;0.20;0.20;;;;;;;;;;5034653;28;20571;-73
2021/07/20 09:08:00;;;;;;;0.65;0.52;;;;;;;;;;5035039;28;20048;-73
2021/07/20 09:10:32;;;;;;;0.40;0.40;;;;;;;;;;5035387;28;20048;-73
2021/07/20 09:12:59;;;;;;;0.38;0.38;;;;;;;;;;5034826;28;20512;-73
2021/07/20 09:15:27;;;;;;;0.20;0.20;;;;;;;;;;5035053;28;20076;-73
2021/07/20 09:18:09;;;;;;;0.22;0.22;;;;;;;;;;5034481;28;20037;-73
2021/07/20 09:20:37;;;;;;;0.30;0.30;;;;;;;;;;5034206;28;20065;-74
2021/07/20 09:23:07;;;;;;;1.10;0.38;;;;;;;;;;5054394;28;20045;-74
2021/07/20 09:25:34;;;;;;;0.75;0.75;;;;;;;;;;5054171;28;20135;-73
2021/07/20 09:28:12;;;;;;;1.35;0.80;;;;;;;;;;5040754;28;20048;-74
2021/07/20 09:30:43;;;;;;;0.20;0.20;;;;;;;;;;5041560;28;20041;-73
2021/07/20 09:33:09;;;;;;;0.20;0.20;;;;;;;;;;5034210;28;20074;-73
2021/07/20 09:35:50;;;;;;;0.52;0.52;;;;;;;;;;5033437;28;20503;-73
2021/07/20 09:38:16;;;;;;;0.40;0.40;;;;;;;;;;5040961;28;20044;-71
2021/07/20 09:40:53;;;;;;;0.30;0.30;;;;;;;;;;5053341;28;20048;-72
2021/07/20 09:43:22;;;;;;;0.60;0.60;;;;;;;;;;5054082;28;20037;-72
2021/07/20 09:45:50;;;;;;;0.43;0.43;;;;;;;;;;5054987;28;20044;-71
2021/07/20 09:48:23;;;;;;;0.10;0.10;;;;;;;;;;5054603;28;20045;-71
2021/07/20 09:51:08;;;;;;;2.60;1.02;;;;;;;;;;5054601;28;20117;-72
2021/07/20 09:53:52;;;;;;;0.70;0.70;;;;;;;;;;5054978;28;20495;-71
2021/07/20 09:56:39;;;;;;;0.40;0.40;;;;;;;;;;5054926;28;20069;-71
2021/07/20 09:59:24;;;;;;;0.30;0.30;;;;;;;;;;5054345;28;20049;-71
2021/07/20 10:01:53;;;;;;;0.60;0.57;;;;;;;;;;5054780;28;20037;-73
2021/07/20 10:04:26;;;;;;;0.28;0.28;;;;;;;;;;5054341;28;20051;-72
2021/07/20 10:07:03;;;;;;;0.40;0.40;;;;;;;;;;5055209;28;20045;-73
2021/07/20 10:09:48;;;;;;;0.40;0.40;;;;;;;;;;5054110;28;20041;-72
2021/07/20 10:12:22;;;;;;;0.40;0.40;;;;;;;;;;5054337;28;20037;-73
2021/07/20 10:14:57;;;;;;;0.20;0.20;;;;;;;;;;5054796;28;20053;-73
2021/07/20 10:17:33;;;;;;;0.40;0.40;;;;;;;;;;5054186;28;20065;-74
2021/07/20 10:20:20;;;;;;;3.40;0.95;;;;;;;;;;5054263;28;20045;-73
2021/07/20 10:22:49;;;;;;;0.22;0.22;;;;;;;;;;5054236;28;20044;-73
2021/07/20 10:25:34;;;;;;;0.43;0.43;;;;;;;;;;5054301;28;20132;-73
2021/07/20 10:28:04;;;;;;;0.50;0.50;;;;;;;;;;5054244;28;20040;-72
2021/07/20 10:30:34;;;;;;;0.35;0.35;;;;;;;;;;5053476;28;20041;-73
2021/07/20 10:33:03;;;;;;;0.30;0.30;;;;;;;;;;5052451;28;20041;-72
2021/07/20 10:35:29;;;;;;;1.05;0.93;;;;;;;;;;5052564;28;20484;-73
2021/07/20 10:37:56;;;;;;;0.20;0.20;;;;;;;;;;5053761;28;20076;-73
2021/07/20 10:40:24;;;;;;;0.30;0.30;;;;;;;;;;5054194;28;20049;-72
2021/07/20 10:42:55;;;;;;;0.63;0.63;;;;;;;;;;5054129;28;20120;-73
2021/07/20 10:45:22;;;;;;;0.75;0.60;;;;;;;;;;5054417;28;20045;-73
2021/07/20 10:47:52;;;;;;;0.57;0.57;;;;;;;;;;5056775;28;20040;-72
2021/07/20 10:50:27;;;;;;;0.50;0.50;;;;;;;;;;5058128;28;20045;-72
2021/07/20 10:53:09;;;;;;;0.50;0.50;;;;;;;;;;5056936;28;20388;-72
2021/07/20 10:55:43;;;;;;;0.25;0.25;;;;;;;;;;5057927;28;20147;-72
2021/07/20 10:58:28;;;;;;;0.40;0.40;;;;;;;;;;5057896;28;20094;-72
2021/07/20 11:01:02;;;;;;;0.55;0.55;;;;;;;;;;5058600;28;20037;-73
2021/07/20 11:03:34;;;;;;;0.55;0.55;;;;;;;;;;5057760;28;20037;-73
2021/07/20 11:06:01;;;;;;;3.50;0.80;;;;;;;;;;5057758;28;20549;-73
2021/07/20 11:08:30;;;;;;;0.25;0.25;;;;;;;;;;5057961;28;20187;-72
2021/07/20 11:10:58;;;;;;;0.45;0.45;;;;;;;;;;5058506;28;20507;-73
2021/07/20 11:13:31;;;;;;;1.30;1.20;;;;;;;;;;5057432;28;20136;-73
2021/07/20 11:15:59;;;;;;;0.50;0.50;;;;;;;;;;5058052;28;20047;-73
2021/07/20 11:18:31;;;;;;;0.30;0.30;;;;;;;;;;5056918;28;20051;-73
2021/07/20 11:21:01;;;;;;;0.30;0.30;;;;;;;;;;5057095;28;20163;-73
2021/07/20 11:23:28;;;;;;;4.53;2.13;;;;;;;;;;5056696;28;20064;-73
2021/07/20 11:25:55;;;;;;;0.63;0.63;;;;;;;;;;5057400;28;20041;-73
2021/07/20 11:28:21;;;;;;;0.20;0.20;;;;;;;;;;5056948;28;20039;-74
2021/07/20 11:30:49;;;;;;;0.50;0.50;;;;;;;;;;5056038;28;20037;-74
2021/07/20 11:33:25;;;;;;;0.55;0.55;;;;;;;;;;5057106;28;20128;-74
2021/07/20 11:35:53;;;;;;;0.63;0.57;;;;;;;;;;5056997;28;20052;-74
2021/07/20 11:38:23;;;;;;;0.95;0.50;;;;;;;;;;5057335;28;20064;-74
2021/07/20 11:40:54;;;;;;;0.40;0.40;;;;;;;;;;5057410;28;20508;-74
2021/07/20 11:43:39;;;;;;;0.40;0.40;;;;;;;;;;5056999;28;20045;-74
2021/07/20 11:46:11;;;;;;;0.20;0.20;;;;;;;;;;5057182;28;20136;-73
2021/07/20 11:48:57;;;;;;;0.30;0.30;;;;;;;;;;5056655;28;20044;-73
2021/07/20 11:51:45;;;;;;;0.65;0.65;;;;;;;;;;5057035;28;20048;-74
2021/07/20 11:54:18;;;;;;;0.32;0.32;;;;;;;;;;5056754;28;20090;-74
2021/07/20 11:56:50;;;;;;;0.30;0.30;;;;;;;;;;5056861;28;20048;-74
2021/07/20 11:59:16;;;;;;;0.30;0.30;;;;;;;;;;5056692;28;20045;-74
2021/07/20 12:02:01;;;;;;;0.22;0.22;;;;;;;;;;5056717;28;20040;-74
2021/07/20 12:04:30;;;;;;;6.75;1.40;;;;;;;;;;5056447;28;20090;-74
2021/07/20 12:07:14;;;;;;;0.32;0.32;;;;;;;;;;5056679;28;20055;-74
2021/07/20 12:09:59;;;;;;;0.32;0.30;;;;;;;;;;5056858;28;20102;-74
2021/07/20 12:12:44;;;;;;;0.30;0.30;;;;;;;;;;5056168;28;20480;-74
2021/07/20 12:15:10;;;;;;;0.20;0.20;;;;;;;;;;5057294;28;20041;-73
2021/07/20 12:17:39;;;;;;;0.20;0.20;;;;;;;;;;5056328;28;20483;-74
2021/07/20 12:20:05;;;;;;;0.43;0.43;;;;;;;;;;5056645;28;20048;-74
2021/07/20 12:22:32;;;;;;;0.28;0.28;;;;;;;;;;5056744;28;20041;-74
2021/07/20 12:25:04;;;;;;;0.57;0.55;;;;;;;;;;5056469;28;20053;-74
2021/07/20 12:27:30;;;;;;;0.20;0.20;;;;;;;;;;5056919;28;20044;-74
2021/07/20 12:29:57;;;;;;;0.82;0.82;;;;;;;;;;5049138;28;20389;-74
2021/07/20 12:32:26;;;;;;;1.60;0.80;;;;;;;;;;5042505;28;20044;-74
2021/07/20 12:34:52;;;;;;;0.25;0.25;;;;;;;;;;5036174;28;20457;-74
2021/07/20 12:37:19;;;;;;;0.40;0.40;;;;;;;;;;5036153;28;20034;-73
2021/07/20 12:39:45;;;;;;;0.30;0.30;;;;;;;;;;5035731;28;20116;-74
2021/07/20 12:42:11;;;;;;;0.30;0.30;;;;;;;;;;5036169;28;20038;-74
2021/07/20 12:44:37;;;;;;;1.08;0.38;;;;;;;;;;5036078;28;20040;-74
2021/07/20 12:47:05;;;;;;;0.25;0.25;;;;;;;;;;5036113;28;20068;-73
2021/07/20 12:49:31;;;;;;;0.90;0.40;;;;;;;;;;5036228;28;20111;-73
2021/07/20 12:51:57;;;;;;;0.30;0.30;;;;;;;;;;5035776;28;20465;-73
2021/07/20 12:54:37;;;;;;;0.38;0.38;;;;;;;;;;5036023;28;20087;-74
2021/07/20 12:57:04;;;;;;;0.38;0.38;;;;;;;;;;5036646;28;20034;-74
2021/07/20 12:59:30;;;;;;;0.60;0.60;;;;;;;;;;5036039;28;20064;-74
2021/07/20 13:01:57;;;;;;;0.30;0.30;;;;;;;;;;5035597;28;20088;-74
2021/07/20 13:04:24;;;;;;;0.40;0.40;;;;;;;;;;5035039;28;20034;-73
2021/07/20 13:06:50;;;;;;;0.40;0.40;;;;;;;;;;5035548;28;20069;-74
2021/07/20 13:09:19;;;;;;;0.20;0.20;;;;;;;;;;5033574;28;20396;-74
2021/07/20 13:11:45;;;;;;;0.20;0.20;;;;;;;;;;5039510;28;20230;-74
2021/07/20 13:14:11;;;;;;;0.38;0.38;;;;;;;;;;5055613;28;20087;-73
2021/07/20 13:16:41;;;;;;;0.50;0.47;;;;;;;;;;5054604;28;20033;-74
2021/07/20 13:19:08;;;;;;;0.25;0.25;;;;;;;;;;5055429;28;20033;-74
2021/07/20 13:21:43;;;;;;;0.50;0.50;;;;;;;;;;5055168;28;20098;-74
2021/07/20 13:24:10;;;;;;;1.00;0.80;;;;;;;;;;5055030;28;20073;-74
2021/07/20 13:26:37;;;;;;;0.50;0.50;;;;;;;;;;5055187;28;20040;-73
2021/07/20 13:29:08;;;;;;;0.43;0.43;;;;;;;;;;5055155;28;20048;-75
2021/07/20 13:31:38;;;;;;;0.20;0.20;;;;;;;;;;5055267;28;20044;-73
2021/07/20 13:34:05;;;;;;;0.40;0.40;;;;;;;;;;5054669;28;20041;-74
2021/07/20 13:36:32;;;;;;;0.10;0.10;;;;;;;;;;5054878;28;20048;-74
2021/07/20 13:38:59;;;;;;;0.47;0.47;;;;;;;;;;5054669;28;20033;-74
2021/07/20 13:41:26;;;;;;;0.35;0.35;;;;;;;;;;5054940;28;20044;-74
2021/07/20 13:43:53;;;;;;;0.40;0.40;;;;;;;;;;5054621;28;20489;-74
2021/07/20 13:46:20;;;;;;;1.65;1.02;;;;;;;;;;5054854;28;20041;-73
2021/07/20 13:48:48;;;;;;;0.43;0.43;;;;;;;;;;5054959;28;20045;-75
2021/07/20 13:51:20;;;;;;;0.38;0.38;;;;;;;;;;5053854;28;20066;-75
2021/07/20 13:53:48;;;;;;;0.30;0.30;;;;;;;;;;5054963;28;20048;-75
2021/07/20 13:56:15;;;;;;;0.32;0.32;;;;;;;;;;5055068;28;20041;-74
2021/07/20 13:58:43;;;;;;;0.30;0.30;;;;;;;;;;5054396;28;20036;-74
2021/07/20 14:01:10;;;;;;;0.30;0.30;;;;;;;;;;5055124;28;20041;-74
2021/07/20 14:03:36;;;;;;;0.43;0.43;;;;;;;;;;5054596;28;20484;-73
2021/07/20 14:06:03;;;;;;;0.77;0.77;;;;;;;;;;5054602;28;20064;-74
2021/07/20 14:08:29;;;;;;;0.30;0.30;;;;;;;;;;5054617;28;20102;-75
2021/07/20 14:10:57;;;;;;;0.30;0.30;;;;;;;;;;5055148;28;20068;-74
2021/07/20 14:13:25;;;;;;;0.50;0.50;;;;;;;;;;5054415;28;20052;-74
2021/07/20 14:15:51;;;;;;;0.50;0.50;;;;;;;;;;5051552;28;20559;-74
2021/07/20 14:18:17;;;;;;;0.20;0.20;;;;;;;;;;5052887;28;20383;-74
2021/07/20 14:20:46;;;;;;;0.40;0.40;;;;;;;;;;5055272;28;20118;-76
2021/07/20 14:23:12;;;;;;;0.55;0.55;;;;;;;;;;5017489;28;20145;-73
2021/07/20 14:25:46;;;;;;;0.57;0.57;;;;;;;;;;5037372;28;20046;-75
2021/07/20 14:28:13;;;;;;;0.50;0.50;;;;;;;;;;5038151;28;20042;-75
2021/07/20 14:30:50;;;;;;;0.40;0.40;;;;;;;;;;5037977;28;20128;-74
2021/07/20 14:33:17;;;;;;;0.75;0.75;;;;;;;;;;5020536;28;20424;-75
2021/07/20 14:35:43;;;;;;;0.60;0.60;;;;;;;;;;5017555;28;20041;-74
2021/07/20 14:38:13;;;;;;;0.30;0.30;;;;;;;;;;5017849;28;20034;-74
2021/07/20 14:40:40;;;;;;;0.50;0.50;;;;;;;;;;5017958;28;20080;-74
2021/07/20 14:43:07;;;;;;;0.20;0.20;;;;;;;;;;5018788;28;20128;-74
2021/07/20 14:45:33;;;;;;;0.40;0.40;;;;;;;;;;5018357;28;20041;-73
2021/07/20 14:48:07;;;;;;;0.40;0.40;;;;;;;;;;5018556;28;20069;-74
2021/07/20 14:50:37;;;;;;;1.10;0.88;;;;;;;;;;5018029;28;20049;-74
2021/07/20 14:53:03;;;;;;;0.47;0.45;;;;;;;;;;5018208;28;20033;-74
2021/07/20 14:55:33;;;;;;;0.60;0.45;;;;;;;;;;5018542;28;20121;-74